createdAt,value
2022-10-17T00:00:07.547Z,10.28
2022-10-17T00:02:34.176Z,10.35
2022-10-17T00:05:00.846Z,10.44
2022-10-17T00:07:27.640Z,10.23
2022-10-17T00:09:54.505Z,10.27
2022-10-17T00:12:21.132Z,10.24
2022-10-17T00:14:47.841Z,10.24
2022-10-17T00:17:15.700Z,10.26
2022-10-17T00:19:42.497Z,10.09
2022-10-17T00:22:09.101Z,10.27
2022-10-17T00:24:35.731Z,10.27
2022-10-17T00:27:02.413Z,10.23
2022-10-17T00:29:29.195Z,10.21
2022-10-17T00:31:57.297Z,10.16
2022-10-17T00:34:25.148Z,10.13
2022-10-17T00:36:51.779Z,10.13
2022-10-17T00:39:18.421Z,10.04
2022-10-17T00:41:45.059Z,10.11
2022-10-17T00:44:30.020Z,10.18
2022-10-17T00:47:04.358Z,10.15
2022-10-17T00:49:34.161Z,10.05
2022-10-17T00:52:03.732Z,9.91
2022-10-17T00:54:37.904Z,9.88
2022-10-17T00:57:05.001Z,9.93
2022-10-17T00:59:33.485Z,9.92
2022-10-17T01:02:04.001Z,9.90
2022-10-17T01:04:30.867Z,9.77
2022-10-17T01:06:57.469Z,9.84
2022-10-17T01:09:25.225Z,9.76
2022-10-17T01:12:07.036Z,9.79
2022-10-17T01:14:51.726Z,9.80
2022-10-17T01:17:24.270Z,9.67
2022-10-17T01:20:22.518Z,9.54
2022-10-17T01:23:10.667Z,9.50
2022-10-17T01:25:40.192Z,9.53
2022-10-17T01:28:37.307Z,9.54
2022-10-17T01:31:09.782Z,9.53
2022-10-17T01:33:49.196Z,9.30
2022-10-17T01:36:41.916Z,9.20
2022-10-17T01:39:24.266Z,9.20
2022-10-17T01:41:57.996Z,9.19
2022-10-17T01:44:58.652Z,9.19
2022-10-17T01:47:29.671Z,9.24
2022-10-17T01:50:01.182Z,9.20
2022-10-17T01:52:39.052Z,9.19
2022-10-17T01:55:11.854Z,9.21
2022-10-17T01:57:41.902Z,9.17
2022-10-17T02:00:14.752Z,9.17
2022-10-17T02:02:44.136Z,9.13
2022-10-17T02:05:10.781Z,9.12
2022-10-17T02:07:37.430Z,9.07
2022-10-17T02:10:11.177Z,9.11
2022-10-17T02:13:22.157Z,9.08
2022-10-17T02:16:06.862Z,9.08
2022-10-17T02:18:53.742Z,9.10
2022-10-17T02:21:25.499Z,9.04
2022-10-17T02:24:04.989Z,9.12
2022-10-17T02:26:44.929Z,8.97
2022-10-17T02:29:19.937Z,9.07
2022-10-17T02:31:50.182Z,8.79
2022-10-17T02:34:24.705Z,8.81
2022-10-17T02:36:55.276Z,8.82
2022-10-17T02:39:23.869Z,8.85
2022-10-17T02:41:51.402Z,8.76
2022-10-17T02:44:18.318Z,8.82
2022-10-17T02:46:49.774Z,8.82
2022-10-17T02:49:32.021Z,8.75
2022-10-17T02:52:18.153Z,8.64
2022-10-17T02:55:15.117Z,8.66
2022-10-17T02:58:01.086Z,8.63
2022-10-17T03:00:29.044Z,8.64
2022-10-17T03:02:56.024Z,8.52
2022-10-17T03:05:25.137Z,8.60
2022-10-17T03:07:52.489Z,8.55
2022-10-17T03:10:19.810Z,8.56
2022-10-17T03:12:46.432Z,8.50
2022-10-17T03:15:13.924Z,8.55
2022-10-17T03:17:40.923Z,8.49
2022-10-17T03:20:07.910Z,8.43
2022-10-17T03:22:34.790Z,8.45
2022-10-17T03:25:01.608Z,8.46
2022-10-17T03:27:28.438Z,8.45
2022-10-17T03:29:55.269Z,8.45
2022-10-17T03:32:21.905Z,8.41
2022-10-17T03:34:48.540Z,8.36
2022-10-17T03:37:15.204Z,8.28
2022-10-17T03:39:41.828Z,8.22
2022-10-17T03:42:08.444Z,8.16
2022-10-17T03:44:35.061Z,8.17
2022-10-17T03:47:03.732Z,8.26
2022-10-17T03:49:30.360Z,8.21
2022-10-17T03:51:57.019Z,8.28
2022-10-17T03:54:23.640Z,8.29
2022-10-17T03:56:50.296Z,8.32
2022-10-17T03:59:17.147Z,8.25
2022-10-17T04:01:44.152Z,8.24
2022-10-17T04:04:10.768Z,8.27
2022-10-17T04:06:37.671Z,8.14
2022-10-17T04:09:05.439Z,8.00
2022-10-17T04:11:32.126Z,7.88
2022-10-17T04:13:59.785Z,8.00
2022-10-17T04:16:27.267Z,8.00
2022-10-17T04:18:55.940Z,8.03
2022-10-17T04:21:24.687Z,8.03
2022-10-17T04:24:00.650Z,8.12
2022-10-17T04:26:28.028Z,8.07
2022-10-17T04:28:54.694Z,8.07
2022-10-17T04:31:21.595Z,8.07
2022-10-17T04:33:49.066Z,8.10
2022-10-17T04:36:18.305Z,8.10
2022-10-17T04:38:45.423Z,8.02
2022-10-17T04:41:17.296Z,8.05
2022-10-17T04:43:46.969Z,8.03
2022-10-17T04:46:16.966Z,8.02
2022-10-17T04:48:43.598Z,8.03
2022-10-17T04:51:16.404Z,8.03
2022-10-17T04:53:43.877Z,7.92
2022-10-17T04:56:11.463Z,7.95
2022-10-17T04:58:38.569Z,8.00
2022-10-17T05:01:09.207Z,7.92
2022-10-17T05:03:36.343Z,8.00
2022-10-17T05:06:24.215Z,7.94
2022-10-17T05:08:50.996Z,7.85
2022-10-17T05:11:21.531Z,7.79
2022-10-17T05:14:00.638Z,7.74
2022-10-17T05:16:28.405Z,7.77
2022-10-17T05:18:56.724Z,7.81
2022-10-17T05:21:25.231Z,7.75
2022-10-17T05:23:52.433Z,7.73
2022-10-17T05:26:19.489Z,7.69
2022-10-17T05:28:46.215Z,7.71
2022-10-17T05:31:13.343Z,7.72
2022-10-17T05:33:40.299Z,7.68
2022-10-17T05:36:07.592Z,7.69
2022-10-17T05:38:34.880Z,7.56
2022-10-17T05:41:04.094Z,7.55
2022-10-17T05:43:31.052Z,7.61
2022-10-17T05:45:57.765Z,7.57
2022-10-17T05:48:24.491Z,7.50
2022-10-17T05:50:58.070Z,7.59
2022-10-17T05:53:24.685Z,7.48
2022-10-17T05:55:59.133Z,7.59
2022-10-17T05:58:45.473Z,7.57
2022-10-17T06:01:13.381Z,7.50
2022-10-17T06:03:40.101Z,7.55
2022-10-17T06:06:09.220Z,7.54
2022-10-17T06:08:35.932Z,7.62
2022-10-17T06:11:06.058Z,7.59
2022-10-17T06:13:35.783Z,7.49
2022-10-17T06:16:02.433Z,7.55
2022-10-17T06:18:29.293Z,7.54
2022-10-17T06:21:02.776Z,7.60
2022-10-17T06:23:29.415Z,7.43
2022-10-17T06:26:03.896Z,7.63
2022-10-17T06:28:30.862Z,7.57
2022-10-17T06:30:57.760Z,7.56
2022-10-17T06:33:24.422Z,7.50
2022-10-17T06:35:52.718Z,7.55
2022-10-17T06:38:19.340Z,7.63
2022-10-17T06:40:46.069Z,7.62
2022-10-17T06:43:12.728Z,7.60
2022-10-17T06:45:40.203Z,7.70
2022-10-17T06:48:07.100Z,7.67
2022-10-17T06:50:34.253Z,7.79
2022-10-17T06:53:00.865Z,7.84
2022-10-17T06:55:27.500Z,7.82
2022-10-17T06:57:56.801Z,7.86
2022-10-17T07:00:23.686Z,7.91
2022-10-17T07:02:50.327Z,7.89
2022-10-17T07:05:17.420Z,7.95
2022-10-17T07:07:45.532Z,8.03
2022-10-17T07:10:14.064Z,7.98
2022-10-17T07:12:40.720Z,7.98
2022-10-17T07:15:08.114Z,8.04
2022-10-17T07:17:34.745Z,8.12
2022-10-17T07:20:01.357Z,8.19
2022-10-17T07:22:28.083Z,8.24
2022-10-17T07:24:54.749Z,8.28
2022-10-17T07:27:21.421Z,8.29
2022-10-17T07:29:48.133Z,8.48
2022-10-17T07:32:14.978Z,8.61
2022-10-17T07:34:41.654Z,8.69
2022-10-17T07:37:09.992Z,8.80
2022-10-17T07:39:36.757Z,9.05
2022-10-17T07:42:03.722Z,9.22
2022-10-17T07:44:30.333Z,9.42
2022-10-17T07:46:57.228Z,9.55
2022-10-17T07:49:24.007Z,9.91
2022-10-17T07:51:50.946Z,10.05
2022-10-17T07:54:17.601Z,10.24
2022-10-17T07:56:44.306Z,10.43
2022-10-17T07:59:10.922Z,10.65
2022-10-17T08:01:38.031Z,10.76
2022-10-17T08:04:04.642Z,11.01
2022-10-17T08:06:31.274Z,11.05
2022-10-17T08:08:58.596Z,11.22
2022-10-17T08:11:25.630Z,11.39
2022-10-17T08:13:52.370Z,11.61
2022-10-17T08:16:19.232Z,11.88
2022-10-17T08:18:45.905Z,12.04
2022-10-17T08:21:13.527Z,12.18
2022-10-17T08:23:40.414Z,12.37
2022-10-17T08:26:10.727Z,12.49
2022-10-17T08:28:39.256Z,12.70
2022-10-17T08:31:09.148Z,12.92
2022-10-17T08:33:35.814Z,13.12
2022-10-17T08:36:03.218Z,13.36
2022-10-17T08:38:34.699Z,13.58
2022-10-17T08:41:05.934Z,13.76
2022-10-17T08:44:03.693Z,13.97
2022-10-17T08:46:33.013Z,14.13
2022-10-17T08:49:00.198Z,14.32
2022-10-17T08:51:33.410Z,14.37
2022-10-17T08:54:24.553Z,14.55
2022-10-17T08:56:53.744Z,14.71
2022-10-17T08:59:26.007Z,14.91
2022-10-17T09:02:10.933Z,15.05
2022-10-17T09:05:08.481Z,15.21
2022-10-17T09:08:02.792Z,15.39
2022-10-17T09:10:50.670Z,15.47
2022-10-17T09:13:45.604Z,15.71
2022-10-17T09:16:21.356Z,15.95
2022-10-17T09:18:57.895Z,16.12
2022-10-17T09:21:41.888Z,16.31
2022-10-17T09:24:18.457Z,16.55
2022-10-17T09:26:46.802Z,16.78
2022-10-17T09:29:22.529Z,16.92
2022-10-17T09:34:42.605Z,17.58
2022-10-17T09:37:16.574Z,17.60
2022-10-17T09:39:44.055Z,17.88
2022-10-17T09:42:14.003Z,18.17
2022-10-17T09:45:24.832Z,18.39
2022-10-17T09:48:13.481Z,18.58
2022-10-17T09:50:40.314Z,18.81
2022-10-17T09:53:13.636Z,18.99
2022-10-17T09:55:48.364Z,19.13
2022-10-17T09:58:15.204Z,19.37
2022-10-17T10:00:44.737Z,19.66
2022-10-17T10:03:17.365Z,19.87
2022-10-17T10:06:03.070Z,20.06
2022-10-17T10:08:35.255Z,20.36
2022-10-17T10:11:05.765Z,20.58
2022-10-17T10:13:33.902Z,20.69
2022-10-17T10:16:13.786Z,20.74
2022-10-17T10:18:41.505Z,20.95
2022-10-17T10:21:13.822Z,21.05
2022-10-17T10:23:45.644Z,21.13
2022-10-17T10:26:22.384Z,21.33
2022-10-17T10:29:31.055Z,21.65
2022-10-17T10:32:19.286Z,21.81
2022-10-17T10:35:03.953Z,21.95
2022-10-17T10:37:44.479Z,22.10
2022-10-17T10:40:29.202Z,22.29
2022-10-17T10:43:02.626Z,22.34
2022-10-17T10:45:53.051Z,22.48
2022-10-17T10:48:21.794Z,22.46
2022-10-17T10:50:51.981Z,22.55
2022-10-17T10:53:35.442Z,22.70
2022-10-17T10:56:15.414Z,22.74
2022-10-17T10:59:09.289Z,22.83
2022-10-17T11:01:49.289Z,22.93
2022-10-17T11:04:46.474Z,22.98
2022-10-17T11:07:26.717Z,23.04
2022-10-17T11:09:54.854Z,23.23
2022-10-17T11:12:35.394Z,23.40
2022-10-17T11:15:18.819Z,23.47
2022-10-17T11:18:02.774Z,23.61
2022-10-17T11:20:41.183Z,23.83
2022-10-17T11:23:33.053Z,24.06
2022-10-17T11:26:04.073Z,24.20
2022-10-17T11:28:30.957Z,24.33
2022-10-17T11:31:03.410Z,24.42
2022-10-17T11:33:44.903Z,24.44
2022-10-17T11:36:12.721Z,24.66
2022-10-17T11:38:45.170Z,24.80
2022-10-17T11:41:16.473Z,24.80
2022-10-17T11:43:48.320Z,24.98
2022-10-17T11:46:36.062Z,24.99
2022-10-17T11:49:10.479Z,25.08
2022-10-17T11:52:01.488Z,25.08
2022-10-17T11:54:34.174Z,24.93
2022-10-17T11:57:18.552Z,25.28
2022-10-17T11:59:51.100Z,25.42
2022-10-17T12:02:37.027Z,25.39
2022-10-17T12:05:12.318Z,25.45
2022-10-17T12:08:05.245Z,25.48
2022-10-17T12:10:31.968Z,25.57
2022-10-17T12:13:27.824Z,25.50
2022-10-17T12:15:58.920Z,25.71
2022-10-17T12:18:27.502Z,25.88
2022-10-17T12:20:58.041Z,25.91
2022-10-17T12:23:28.878Z,25.91
2022-10-17T12:26:03.254Z,25.96
2022-10-17T12:28:31.744Z,25.80
2022-10-17T12:31:05.982Z,25.88
2022-10-17T12:33:49.208Z,25.95
2022-10-17T12:36:18.974Z,26.24
2022-10-17T12:38:50.446Z,26.11
2022-10-17T12:41:37.911Z,26.28
2022-10-17T12:44:13.945Z,26.07
2022-10-17T12:46:47.198Z,26.13
2022-10-17T12:49:40.362Z,26.27
2022-10-17T12:52:22.862Z,26.35
2022-10-17T12:55:23.934Z,26.19
2022-10-17T12:58:08.254Z,26.34
2022-10-17T13:00:59.484Z,26.49
2022-10-17T13:03:33.299Z,26.52
2022-10-17T13:06:03.760Z,26.85
2022-10-17T13:08:33.678Z,26.82
2022-10-17T13:11:00.741Z,26.63
2022-10-17T13:13:48.783Z,27.12
2022-10-17T13:16:32.425Z,26.95
2022-10-17T13:19:16.527Z,27.35
2022-10-17T13:22:06.088Z,27.36
2022-10-17T13:24:39.246Z,27.47
2022-10-17T13:27:21.221Z,27.41
2022-10-17T13:29:47.866Z,27.27
2022-10-17T13:32:14.496Z,27.55
2022-10-17T13:34:41.160Z,27.69
2022-10-17T13:37:11.573Z,27.91
2022-10-17T13:40:00.365Z,27.98
2022-10-17T13:42:40.976Z,28.05
2022-10-17T13:45:26.342Z,28.27
2022-10-17T13:47:53.215Z,28.35
2022-10-17T13:50:44.219Z,28.40
2022-10-17T13:53:32.529Z,28.25
2022-10-17T13:56:26.290Z,28.31
2022-10-17T13:58:54.087Z,28.14
2022-10-17T14:01:21.497Z,28.41
2022-10-17T14:03:51.796Z,28.38
2022-10-17T14:06:27.621Z,28.19
2022-10-17T14:08:57.036Z,28.45
2022-10-17T14:11:30.137Z,28.45
2022-10-17T14:14:00.093Z,28.44
2022-10-17T14:16:28.301Z,28.68
2022-10-17T14:18:55.670Z,28.61
2022-10-17T14:21:43.468Z,28.66
2022-10-17T14:24:21.267Z,28.47
2022-10-17T14:26:49.945Z,28.50
2022-10-17T14:29:51.500Z,28.61
2022-10-17T14:32:18.719Z,28.59
2022-10-17T14:34:46.693Z,28.69
2022-10-17T14:37:51.449Z,28.77
2022-10-17T14:40:20.296Z,28.63
2022-10-17T14:42:48.406Z,28.44
2022-10-17T14:45:25.499Z,28.52
2022-10-17T14:47:53.637Z,28.36
2022-10-17T14:50:23.986Z,28.27
2022-10-17T14:53:05.858Z,28.16
2022-10-17T14:55:34.987Z,28.10
2022-10-17T14:58:02.188Z,28.07
2022-10-17T15:00:28.969Z,28.14
2022-10-17T15:02:56.356Z,27.86
2022-10-17T15:05:23.545Z,27.98
2022-10-17T15:07:50.220Z,27.90
2022-10-17T15:10:26.566Z,27.98
2022-10-17T15:12:59.275Z,28.03
2022-10-17T15:15:31.884Z,27.95
2022-10-17T15:17:59.196Z,28.06
2022-10-17T15:20:29.536Z,28.04
2022-10-17T15:23:00.569Z,27.99
2022-10-17T15:25:28.526Z,27.88
2022-10-17T15:27:55.677Z,27.71
2022-10-17T15:30:24.750Z,27.57
2022-10-17T15:32:52.265Z,27.10
2022-10-17T15:35:19.393Z,26.84
2022-10-17T15:37:46.953Z,26.37
2022-10-17T15:40:16.397Z,26.08
2022-10-17T15:42:43.464Z,25.77
2022-10-17T15:45:12.277Z,25.40
2022-10-17T15:47:39.026Z,25.07
2022-10-17T15:50:08.810Z,24.94
2022-10-17T15:52:35.956Z,24.75
2022-10-17T15:55:05.254Z,24.53
2022-10-17T15:57:37.998Z,24.36
2022-10-17T16:00:06.883Z,24.15
2022-10-17T16:02:34.277Z,23.82
2022-10-17T16:05:01.016Z,23.52
2022-10-17T16:07:27.742Z,23.33
2022-10-17T16:09:54.538Z,23.17
2022-10-17T16:12:28.023Z,22.92
2022-10-17T16:14:55.095Z,22.69
2022-10-17T16:17:21.713Z,22.64
2022-10-17T16:19:48.378Z,22.34
2022-10-17T16:22:32.434Z,22.10
2022-10-17T16:25:07.617Z,21.76
2022-10-17T16:27:34.491Z,21.56
2022-10-17T16:30:01.166Z,21.42
2022-10-17T16:32:28.207Z,21.29
2022-10-17T16:34:55.141Z,21.14
2022-10-17T16:37:21.807Z,20.81
2022-10-17T16:39:52.571Z,20.65
2022-10-17T16:42:20.782Z,20.41
2022-10-17T16:44:51.321Z,20.40
2022-10-17T16:47:18.669Z,20.13
2022-10-17T16:49:45.710Z,19.97
2022-10-17T16:52:12.771Z,19.82
2022-10-17T16:54:39.415Z,19.57
2022-10-17T16:57:06.058Z,19.40
2022-10-17T16:59:32.680Z,19.24
2022-10-17T17:01:59.300Z,19.07
2022-10-17T17:04:25.965Z,18.97
2022-10-17T17:06:53.676Z,18.92
2022-10-17T17:09:20.407Z,18.68
2022-10-17T17:11:47.134Z,18.52
2022-10-17T17:14:13.816Z,18.35
2022-10-17T17:16:40.639Z,18.33
2022-10-17T17:19:10.054Z,18.12
2022-10-17T17:21:36.858Z,17.98
2022-10-17T17:24:04.235Z,17.98
2022-10-17T17:26:37.589Z,17.83
2022-10-17T17:29:04.603Z,17.65
2022-10-17T17:31:33.285Z,17.64
2022-10-17T17:34:05.883Z,17.46
2022-10-17T17:36:34.482Z,17.36
2022-10-17T17:39:04.171Z,17.40
2022-10-17T17:41:31.557Z,17.24
2022-10-17T17:44:01.659Z,17.15
2022-10-17T17:46:28.580Z,16.98
2022-10-17T17:48:55.698Z,16.98
2022-10-17T17:51:34.791Z,16.83
2022-10-17T17:54:01.406Z,16.63
2022-10-17T17:56:29.447Z,16.60
2022-10-17T17:59:01.143Z,16.34
2022-10-17T18:01:31.859Z,16.28
2022-10-17T18:03:59.225Z,16.22
2022-10-17T18:06:27.658Z,16.24
2022-10-17T18:08:59.204Z,16.21
2022-10-17T18:11:27.307Z,16.17
2022-10-17T18:13:59.346Z,16.01
2022-10-17T18:16:27.022Z,15.88
2022-10-17T18:18:53.933Z,15.71
2022-10-17T18:21:20.943Z,15.64
2022-10-17T18:23:48.873Z,15.68
2022-10-17T18:26:17.868Z,15.76
2022-10-17T18:28:45.027Z,15.64
2022-10-17T18:31:28.511Z,15.64
2022-10-17T18:33:58.283Z,15.56
2022-10-17T18:36:26.289Z,15.46
2022-10-17T18:38:54.061Z,15.36
2022-10-17T18:41:22.646Z,15.08
2022-10-17T18:43:50.375Z,14.96
2022-10-17T18:46:19.561Z,14.89
2022-10-17T18:48:47.291Z,14.90
2022-10-17T18:51:15.958Z,14.90
2022-10-17T18:53:44.844Z,14.86
2022-10-17T18:56:12.160Z,14.90
2022-10-17T18:58:39.661Z,14.87
2022-10-17T19:01:10.439Z,14.85
2022-10-17T19:03:38.293Z,14.65
2022-10-17T19:06:08.041Z,14.75
2022-10-17T19:08:36.808Z,14.66
2022-10-17T19:11:13.345Z,14.65
2022-10-17T19:13:40.308Z,14.45
2022-10-17T19:16:12.956Z,14.00
2022-10-17T19:19:07.799Z,14.19
2022-10-17T19:21:34.827Z,14.30
2022-10-17T19:24:04.059Z,14.25
2022-10-17T19:26:35.570Z,14.13
2022-10-17T19:29:02.738Z,13.98
2022-10-17T19:31:36.024Z,14.09
2022-10-17T19:34:10.229Z,14.07
2022-10-17T19:36:37.188Z,13.96
2022-10-17T19:39:07.599Z,13.86
2022-10-17T19:41:36.129Z,13.81
2022-10-17T19:44:02.809Z,13.71
2022-10-17T19:46:32.257Z,13.71
2022-10-17T19:48:58.901Z,13.71
2022-10-17T19:51:26.430Z,13.56
2022-10-17T19:53:55.177Z,13.64
2022-10-17T19:56:23.044Z,13.62
2022-10-17T19:58:50.544Z,13.53
2022-10-17T20:01:23.086Z,13.32
2022-10-17T20:03:50.299Z,13.33
2022-10-17T20:06:18.600Z,13.33
2022-10-17T20:08:46.264Z,13.31
2022-10-17T20:11:15.961Z,13.37
2022-10-17T20:13:45.036Z,13.21
2022-10-17T20:16:14.494Z,13.01
2022-10-17T20:18:42.794Z,12.90
2022-10-17T20:21:12.718Z,12.95
2022-10-17T20:23:39.909Z,12.93
2022-10-17T20:26:36.581Z,12.92
2022-10-17T20:29:01.382Z,13.01
2022-10-17T20:31:28.528Z,13.02
2022-10-17T20:33:59.314Z,13.02
2022-10-17T20:36:26.380Z,13.01
2022-10-17T20:38:57.081Z,12.86
2022-10-17T20:41:24.325Z,12.67
2022-10-17T20:43:52.919Z,12.66
2022-10-17T20:46:36.364Z,12.54
2022-10-17T20:49:05.444Z,12.58
2022-10-17T20:51:32.609Z,12.51
2022-10-17T20:53:59.309Z,12.51
2022-10-17T20:56:28.658Z,12.58
2022-10-17T20:58:58.258Z,12.57
2022-10-17T21:01:26.156Z,12.54
2022-10-17T21:03:53.192Z,12.36
2022-10-17T21:06:20.047Z,12.13
2022-10-17T21:08:47.477Z,12.24
2022-10-17T21:11:16.588Z,12.20
2022-10-17T21:13:43.589Z,12.29
2022-10-17T21:16:12.769Z,12.30
2022-10-17T21:18:39.877Z,12.19
2022-10-17T21:21:08.619Z,12.23
2022-10-17T21:23:35.417Z,12.31
2022-10-17T21:26:02.072Z,12.21
2022-10-17T21:28:28.775Z,12.22
2022-10-17T21:30:55.533Z,12.07
2022-10-17T21:33:22.142Z,11.92
2022-10-17T21:35:48.789Z,11.93
2022-10-17T21:38:15.391Z,11.97
2022-10-17T21:40:46.700Z,12.01
2022-10-17T21:43:14.300Z,11.97
2022-10-17T21:45:40.929Z,11.88
2022-10-17T21:48:14.750Z,11.93
2022-10-17T21:50:42.472Z,11.89
2022-10-17T21:53:09.177Z,11.81
2022-10-17T21:55:37.533Z,11.69
2022-10-17T21:58:04.444Z,11.71
2022-10-17T22:00:31.171Z,11.59
2022-10-17T22:02:57.773Z,11.59
2022-10-17T22:05:24.433Z,11.48
2022-10-17T22:07:51.070Z,11.51
2022-10-17T22:10:18.735Z,11.44
2022-10-17T22:12:45.396Z,11.32
2022-10-17T22:17:59.597Z,11.46
2022-10-17T22:20:26.251Z,11.31
2022-10-17T22:22:52.932Z,11.28
2022-10-17T22:25:19.590Z,11.22
2022-10-17T22:27:47.028Z,11.20
2022-10-17T22:30:13.644Z,11.18
2022-10-17T22:32:40.266Z,11.24
2022-10-17T22:35:07.608Z,11.25
2022-10-17T22:37:34.239Z,11.21
2022-10-17T22:40:02.302Z,11.29
2022-10-17T22:42:31.729Z,11.32
2022-10-17T22:44:58.495Z,11.19
2022-10-17T22:47:25.138Z,11.23
2022-10-17T22:49:51.808Z,11.20
2022-10-17T22:52:18.416Z,11.29
2022-10-17T22:54:46.073Z,11.20
2022-10-17T22:57:13.166Z,11.17
2022-10-17T22:59:39.790Z,11.09
2022-10-17T23:02:06.672Z,11.10
2022-10-17T23:04:33.327Z,10.99
2022-10-17T23:06:59.966Z,11.06
2022-10-17T23:11:54.270Z,10.79
2022-10-17T23:14:21.889Z,10.59
2022-10-17T23:16:48.540Z,10.61
2022-10-17T23:19:15.174Z,10.65
2022-10-17T23:21:41.890Z,10.63
2022-10-17T23:24:09.477Z,10.63
2022-10-17T23:26:36.269Z,10.68
2022-10-17T23:29:02.960Z,10.70
2022-10-17T23:31:29.637Z,10.61
2022-10-17T23:34:01.918Z,10.54
2022-10-17T23:36:28.583Z,10.63
2022-10-17T23:38:57.875Z,10.64
2022-10-17T23:41:25.404Z,10.72
2022-10-17T23:43:52.048Z,10.74
2022-10-17T23:46:18.699Z,10.69
2022-10-17T23:48:45.341Z,10.38
2022-10-17T23:51:12.037Z,10.58
2022-10-17T23:53:39.757Z,10.68
2022-10-17T23:56:07.950Z,10.65
2022-10-17T23:58:34.922Z,10.51
